sensor_id;sensor_type;location;lat;lon;timestamp;pressure;altitude;pressure_sealevel;temperature;humidity
75627;BME280;67372;49.404;11.034;2023-10-13T00:01:49;98243.31;;;15.89;90.34
75627;BME280;67372;49.404;11.034;2023-10-13T00:04:16;98237.38;;;15.87;90.08
75627;BME280;67372;49.404;11.034;2023-10-13T00:06:43;98243.00;;;15.85;90.23
75627;BME280;67372;49.404;11.034;2023-10-13T00:09:09;98250.22;;;15.85;90.05
75627;BME280;67372;49.404;11.034;2023-10-13T00:11:35;98244.03;;;15.84;90.39
75627;BME280;67372;49.404;11.034;2023-10-13T00:14:02;98248.38;;;15.85;90.29
75627;BME280;67372;49.404;11.034;2023-10-13T00:16:28;98239.47;;;15.85;90.53
75627;BME280;67372;49.404;11.034;2023-10-13T00:18:54;98233.28;;;15.84;90.66
75627;BME280;67372;49.404;11.034;2023-10-13T00:21:21;98217.94;;;15.85;90.99
75627;BME280;67372;49.404;11.034;2023-10-13T00:23:48;98222.28;;;15.86;90.67
75627;BME280;67372;49.404;11.034;2023-10-13T00:26:14;98219.59;;;15.86;91.05
75627;BME280;67372;49.404;11.034;2023-10-13T00:28:40;98224.97;;;15.86;90.76
75627;BME280;67372;49.404;11.034;2023-10-13T00:31:07;98227.41;;;15.87;90.45
75627;BME280;67372;49.404;11.034;2023-10-13T00:33:33;98224.72;;;15.87;90.66
75627;BME280;67372;49.404;11.034;2023-10-13T00:36:00;98223.09;;;15.86;90.20
75627;BME280;67372;49.404;11.034;2023-10-13T00:38:26;98221.69;;;15.84;91.41
75627;BME280;67372;49.404;11.034;2023-10-13T00:40:52;98217.88;;;15.80;91.28
75627;BME280;67372;49.404;11.034;2023-10-13T00:43:20;98220.00;;;15.78;91.37
75627;BME280;67372;49.404;11.034;2023-10-13T00:45:55;98217.56;;;15.76;90.95
75627;BME280;67372;49.404;11.034;2023-10-13T00:48:26;98211.63;;;15.74;91.74
75627;BME280;67372;49.404;11.034;2023-10-13T00:50:54;98207.06;;;15.75;91.16
75627;BME280;67372;49.404;11.034;2023-10-13T00:53:20;98209.75;;;15.75;91.27
75627;BME280;67372;49.404;11.034;2023-10-13T00:55:47;98210.00;;;15.73;92.25
75627;BME280;67372;49.404;11.034;2023-10-13T00:58:14;98205.88;;;15.65;93.32
75627;BME280;67372;49.404;11.034;2023-10-13T01:00:42;98202.53;;;15.58;94.50
75627;BME280;67372;49.404;11.034;2023-10-13T01:03:08;98200.31;;;15.55;93.83
75627;BME280;67372;49.404;11.034;2023-10-13T01:05:35;98202.75;;;15.57;92.84
75627;BME280;67372;49.404;11.034;2023-10-13T01:08:02;98203.56;;;15.57;92.72
75627;BME280;67372;49.404;11.034;2023-10-13T01:10:28;98194.69;;;15.57;92.96
75627;BME280;67372;49.404;11.034;2023-10-13T01:12:55;98203.81;;;15.56;93.36
75627;BME280;67372;49.404;11.034;2023-10-13T01:15:21;98204.88;;;15.55;92.71
75627;BME280;67372;49.404;11.034;2023-10-13T01:17:48;98208.88;;;15.52;93.43
75627;BME280;67372;49.404;11.034;2023-10-13T01:20:15;98208.81;;;15.47;94.30
75627;BME280;67372;49.404;11.034;2023-10-13T01:22:41;98202.88;;;15.45;93.78
75627;BME280;67372;49.404;11.034;2023-10-13T01:25:08;98201.50;;;15.43;94.62
75627;BME280;67372;49.404;11.034;2023-10-13T01:27:38;98194.50;;;15.42;94.35
75627;BME280;67372;49.404;11.034;2023-10-13T01:30:05;98188.56;;;15.40;94.34
75627;BME280;67372;49.404;11.034;2023-10-13T01:32:32;98193.34;;;15.38;93.70
75627;BME280;67372;49.404;11.034;2023-10-13T01:34:58;98190.09;;;15.35;93.70
75627;BME280;67372;49.404;11.034;2023-10-13T01:37:25;98191.41;;;15.33;93.48
75627;BME280;67372;49.404;11.034;2023-10-13T01:39:51;98194.09;;;15.33;93.39
75627;BME280;67372;49.404;11.034;2023-10-13T01:42:18;98185.47;;;15.31;93.86
75627;BME280;67372;49.404;11.034;2023-10-13T01:44:44;98197.28;;;15.30;93.51
75627;BME280;67372;49.404;11.034;2023-10-13T01:47:10;98199.16;;;15.29;93.82
75627;BME280;67372;49.404;11.034;2023-10-13T01:49:37;98195.16;;;15.32;93.63
75627;BME280;67372;49.404;11.034;2023-10-13T01:52:03;98200.03;;;15.35;93.29
75627;BME280;67372;49.404;11.034;2023-10-13T01:54:30;98200.38;;;15.39;93.04
75627;BME280;67372;49.404;11.034;2023-10-13T01:56:56;98189.84;;;15.37;93.13
75627;BME280;67372;49.404;11.034;2023-10-13T01:59:23;98184.41;;;15.32;93.26
75627;BME280;67372;49.404;11.034;2023-10-13T02:01:49;98190.28;;;15.29;93.13
75627;BME280;67372;49.404;11.034;2023-10-13T02:04:15;98185.63;;;15.24;94.03
75627;BME280;67372;49.404;11.034;2023-10-13T02:06:42;98182.63;;;15.21;93.69
75627;BME280;67372;49.404;11.034;2023-10-13T02:09:08;98192.81;;;15.19;94.42
75627;BME280;67372;49.404;11.034;2023-10-13T02:11:35;98197.38;;;15.18;93.86
75627;BME280;67372;49.404;11.034;2023-10-13T02:14:01;98196.06;;;15.21;93.61
75627;BME280;67372;49.404;11.034;2023-10-13T02:16:28;98193.13;;;15.22;94.16
75627;BME280;67372;49.404;11.034;2023-10-13T02:18:54;98189.38;;;15.23;93.83
75627;BME280;67372;49.404;11.034;2023-10-13T02:21:21;98183.75;;;15.25;93.78
75627;BME280;67372;49.404;11.034;2023-10-13T02:23:47;98185.63;;;15.24;94.12
75627;BME280;67372;49.404;11.034;2023-10-13T02:26:14;98187.84;;;15.27;93.67
75627;BME280;67372;49.404;11.034;2023-10-13T02:28:40;98188.09;;;15.26;94.34
75627;BME280;67372;49.404;11.034;2023-10-13T02:31:07;98176.75;;;15.24;93.87
75627;BME280;67372;49.404;11.034;2023-10-13T02:33:34;98175.69;;;15.25;94.56
75627;BME280;67372;49.404;11.034;2023-10-13T02:36:02;98169.25;;;15.26;93.96
75627;BME280;67372;49.404;11.034;2023-10-13T02:38:29;98170.88;;;15.27;94.03
75627;BME280;67372;49.404;11.034;2023-10-13T02:40:55;98170.41;;;15.30;93.24
75627;BME280;67372;49.404;11.034;2023-10-13T02:43:22;98165.84;;;15.30;93.46
75627;BME280;67372;49.404;11.034;2023-10-13T02:45:52;98173.09;;;15.30;93.64
75627;BME280;67372;49.404;11.034;2023-10-13T02:48:19;98165.59;;;15.32;93.62
75627;BME280;67372;49.404;11.034;2023-10-13T02:50:55;98162.09;;;15.31;93.58
75627;BME280;67372;49.404;11.034;2023-10-13T02:53:21;98162.09;;;15.31;94.13
75627;BME280;67372;49.404;11.034;2023-10-13T02:55:52;98157.78;;;15.30;94.07
75627;BME280;67372;49.404;11.034;2023-10-13T02:58:18;98163.38;;;15.29;94.01
75627;BME280;67372;49.404;11.034;2023-10-13T03:00:45;98161.19;;;15.26;93.61
75627;BME280;67372;49.404;11.034;2023-10-13T03:03:11;98154.44;;;15.23;93.71
75627;BME280;67372;49.404;11.034;2023-10-13T03:05:38;98151.44;;;15.20;93.87
75627;BME280;67372;49.404;11.034;2023-10-13T03:08:05;98154.63;;;15.17;93.95
75627;BME280;67372;49.404;11.034;2023-10-13T03:10:32;98150.78;;;15.13;94.21
75627;BME280;67372;49.404;11.034;2023-10-13T03:12:58;98152.09;;;15.10;94.12
75627;BME280;67372;49.404;11.034;2023-10-13T03:15:25;98151.78;;;15.07;95.07
75627;BME280;67372;49.404;11.034;2023-10-13T03:17:51;98152.84;;;15.05;94.45
75627;BME280;67372;49.404;11.034;2023-10-13T03:20:18;98155.78;;;15.04;94.70
75627;BME280;67372;49.404;11.034;2023-10-13T03:22:44;98154.16;;;15.03;94.10
75627;BME280;67372;49.404;11.034;2023-10-13T03:25:12;98145.28;;;15.02;94.16
75627;BME280;67372;49.404;11.034;2023-10-13T03:27:39;98148.53;;;15.04;93.60
75627;BME280;67372;49.404;11.034;2023-10-13T03:30:06;98142.34;;;15.04;93.30
75627;BME280;67372;49.404;11.034;2023-10-13T03:32:32;98152.44;;;14.97;94.34
75627;BME280;67372;49.404;11.034;2023-10-13T03:34:59;98145.13;;;14.92;94.03
75627;BME280;67372;49.404;11.034;2023-10-13T03:37:25;98144.97;;;14.82;94.65
75627;BME280;67372;49.404;11.034;2023-10-13T03:39:52;98145.38;;;14.74;94.66
75627;BME280;67372;49.404;11.034;2023-10-13T03:42:18;98142.06;;;14.67;95.49
75627;BME280;67372;49.404;11.034;2023-10-13T03:44:45;98142.44;;;14.59;95.80
75627;BME280;67372;49.404;11.034;2023-10-13T03:47:12;98143.66;;;14.51;94.76
75627;BME280;67372;49.404;11.034;2023-10-13T03:49:38;98145.22;;;14.47;94.67
75627;BME280;67372;49.404;11.034;2023-10-13T03:52:05;98145.88;;;14.42;95.73
75627;BME280;67372;49.404;11.034;2023-10-13T03:54:31;98143.13;;;14.37;96.02
75627;BME280;67372;49.404;11.034;2023-10-13T03:56:58;98140.44;;;14.37;94.96
75627;BME280;67372;49.404;11.034;2023-10-13T03:59:24;98145.22;;;14.35;95.11
75627;BME280;67372;49.404;11.034;2023-10-13T04:01:50;98133.34;;;14.31;94.99
75627;BME280;67372;49.404;11.034;2023-10-13T04:04:18;98137.91;;;14.31;94.29
75627;BME280;67372;49.404;11.034;2023-10-13T04:06:44;98139.53;;;14.32;94.25
75627;BME280;67372;49.404;11.034;2023-10-13T04:09:18;98133.34;;;14.31;94.13
75627;BME280;67372;49.404;11.034;2023-10-13T04:11:44;98131.16;;;14.28;94.13
75627;BME280;67372;49.404;11.034;2023-10-13T04:14:11;98131.66;;;14.25;94.37
75627;BME280;67372;49.404;11.034;2023-10-13T04:16:37;98129.69;;;14.21;94.58
75627;BME280;67372;49.404;11.034;2023-10-13T04:19:05;98129.00;;;14.13;95.73
75627;BME280;67372;49.404;11.034;2023-10-13T04:21:31;98124.13;;;14.10;95.72
75627;BME280;67372;49.404;11.034;2023-10-13T04:23:57;98124.13;;;14.10;96.25
75627;BME280;67372;49.404;11.034;2023-10-13T04:26:24;98126.47;;;14.07;97.04
75627;BME280;67372;49.404;11.034;2023-10-13T04:28:50;98121.34;;;14.05;96.37
75627;BME280;67372;49.404;11.034;2023-10-13T04:31:16;98126.16;;;14.03;96.63
75627;BME280;67372;49.404;11.034;2023-10-13T04:33:43;98123.94;;;14.00;96.22
75627;BME280;67372;49.404;11.034;2023-10-13T04:36:13;98119.66;;;13.99;96.71
75627;BME280;67372;49.404;11.034;2023-10-13T04:38:42;98121.50;;;13.99;97.24
75627;BME280;67372;49.404;11.034;2023-10-13T04:41:09;98123.38;;;13.98;96.76
75627;BME280;67372;49.404;11.034;2023-10-13T04:43:35;98116.97;;;13.99;96.77
75627;BME280;67372;49.404;11.034;2023-10-13T04:46:02;98120.78;;;14.03;96.81
75627;BME280;67372;49.404;11.034;2023-10-13T04:48:28;98110.13;;;14.08;96.35
75627;BME280;67372;49.404;11.034;2023-10-13T04:50:59;98107.53;;;14.13;96.62
75627;BME280;67372;49.404;11.034;2023-10-13T04:53:26;98119.41;;;14.18;96.41
75627;BME280;67372;49.404;11.034;2023-10-13T04:55:52;98112.53;;;14.22;96.08
75627;BME280;67372;49.404;11.034;2023-10-13T04:58:18;98112.38;;;14.28;95.42
75627;BME280;67372;49.404;11.034;2023-10-13T05:00:45;98107.56;;;14.30;95.53
75627;BME280;67372;49.404;11.034;2023-10-13T05:03:11;98103.59;;;14.33;95.20
75627;BME280;67372;49.404;11.034;2023-10-13T05:05:42;98101.97;;;14.32;95.31
75627;BME280;67372;49.404;11.034;2023-10-13T05:08:08;98097.41;;;14.32;95.79
75627;BME280;67372;49.404;11.034;2023-10-13T05:10:36;98100.34;;;14.31;95.62
75627;BME280;67372;49.404;11.034;2023-10-13T05:13:03;98096.03;;;14.30;95.62
75627;BME280;67372;49.404;11.034;2023-10-13T05:15:30;98106.28;;;14.33;94.81
75627;BME280;67372;49.404;11.034;2023-10-13T05:17:56;98102.84;;;14.37;94.09
75627;BME280;67372;49.404;11.034;2023-10-13T05:20:23;98107.72;;;14.40;93.78
75627;BME280;67372;49.404;11.034;2023-10-13T05:22:49;98098.63;;;14.41;93.89
75627;BME280;67372;49.404;11.034;2023-10-13T05:25:16;98104.81;;;14.42;93.57
75627;BME280;67372;49.404;11.034;2023-10-13T05:27:42;98105.88;;;14.41;93.15
75627;BME280;67372;49.404;11.034;2023-10-13T05:30:09;98107.16;;;14.38;92.74
75627;BME280;67372;49.404;11.034;2023-10-13T05:32:36;98110.84;;;14.32;92.43
75627;BME280;67372;49.404;11.034;2023-10-13T05:35:02;98107.56;;;14.30;92.73
75627;BME280;67372;49.404;11.034;2023-10-13T05:37:29;98109.13;;;14.26;92.33
75627;BME280;67372;49.404;11.034;2023-10-13T05:39:55;98107.75;;;14.24;92.64
75627;BME280;67372;49.404;11.034;2023-10-13T05:42:22;98110.19;;;14.25;92.48
75627;BME280;67372;49.404;11.034;2023-10-13T05:44:49;98104.00;;;14.25;91.98
75627;BME280;67372;49.404;11.034;2023-10-13T05:47:15;98109.59;;;14.23;91.67
75627;BME280;67372;49.404;11.034;2023-10-13T05:49:42;98108.81;;;14.23;91.56
75627;BME280;67372;49.404;11.034;2023-10-13T05:52:08;98108.56;;;14.24;91.08
75627;BME280;67372;49.404;11.034;2023-10-13T05:54:35;98114.25;;;14.28;90.88
75627;BME280;67372;49.404;11.034;2023-10-13T05:57:01;98108.31;;;14.26;90.54
75627;BME280;67372;49.404;11.034;2023-10-13T05:59:28;98103.44;;;14.23;90.05
75627;BME280;67372;49.404;11.034;2023-10-13T06:01:55;98109.28;;;14.20;90.48
75627;BME280;67372;49.404;11.034;2023-10-13T06:04:22;98105.19;;;14.17;90.29
75627;BME280;67372;49.404;11.034;2023-10-13T06:06:49;98113.34;;;14.22;90.26
75627;BME280;67372;49.404;11.034;2023-10-13T06:09:15;98114.16;;;14.23;90.07
75627;BME280;67372;49.404;11.034;2023-10-13T06:11:41;98114.25;;;14.28;89.74
75627;BME280;67372;49.404;11.034;2023-10-13T06:14:08;98115.63;;;14.30;89.38
75627;BME280;67372;49.404;11.034;2023-10-13T06:16:37;98110.84;;;14.32;89.40
75627;BME280;67372;49.404;11.034;2023-10-13T06:19:03;98116.19;;;14.32;88.95
75627;BME280;67372;49.404;11.034;2023-10-13T06:21:30;98121.56;;;14.32;88.79
75627;BME280;67372;49.404;11.034;2023-10-13T06:23:57;98123.50;;;14.37;88.87
75627;BME280;67372;49.404;11.034;2023-10-13T06:26:23;98120.91;;;14.42;88.89
75627;BME280;67372;49.404;11.034;2023-10-13T06:28:49;98121.88;;;14.48;88.63
75627;BME280;67372;49.404;11.034;2023-10-13T06:31:16;98117.06;;;14.50;87.98
75627;BME280;67372;49.404;11.034;2023-10-13T06:33:42;98124.94;;;14.56;87.63
75627;BME280;67372;49.404;11.034;2023-10-13T06:36:09;98119.09;;;14.59;87.29
75627;BME280;67372;49.404;11.034;2023-10-13T06:38:36;98119.91;;;14.60;86.56
75627;BME280;67372;49.404;11.034;2023-10-13T06:41:06;98124.22;;;14.61;86.54
75627;BME280;67372;49.404;11.034;2023-10-13T06:43:37;98117.53;;;14.63;86.53
75627;BME280;67372;49.404;11.034;2023-10-13T06:46:03;98118.09;;;14.65;86.37
75627;BME280;67372;49.404;11.034;2023-10-13T06:48:30;98122.75;;;14.70;86.12
75627;BME280;67372;49.404;11.034;2023-10-13T06:50:56;98122.03;;;14.74;86.19
75627;BME280;67372;49.404;11.034;2023-10-13T06:53:23;98117.28;;;14.82;85.32
75627;BME280;67372;49.404;11.034;2023-10-13T06:55:51;98113.88;;;14.86;85.42
75627;BME280;67372;49.404;11.034;2023-10-13T06:58:18;98118.19;;;14.87;84.82
75627;BME280;67372;49.404;11.034;2023-10-13T07:00:44;98116.66;;;14.91;84.99
75627;BME280;67372;49.404;11.034;2023-10-13T07:03:11;98123.41;;;14.94;85.02
75627;BME280;67372;49.404;11.034;2023-10-13T07:05:38;98124.53;;;14.98;84.44
75627;BME280;67372;49.404;11.034;2023-10-13T07:08:06;98121.91;;;15.03;84.72
75627;BME280;67372;49.404;11.034;2023-10-13T07:10:32;98123.03;;;15.07;84.41
75627;BME280;67372;49.404;11.034;2023-10-13T07:12:59;98117.72;;;15.12;84.44
75627;BME280;67372;49.404;11.034;2023-10-13T07:15:26;98113.81;;;15.20;84.20
75627;BME280;67372;49.404;11.034;2023-10-13T07:17:52;98109.06;;;15.27;84.01
75627;BME280;67372;49.404;11.034;2023-10-13T07:20:19;98103.75;;;15.32;83.38
75627;BME280;67372;49.404;11.034;2023-10-13T07:22:45;98113.44;;;15.33;82.64
75627;BME280;67372;49.404;11.034;2023-10-13T07:25:12;98110.84;;;15.38;83.43
75627;BME280;67372;49.404;11.034;2023-10-13T07:27:38;98108.47;;;15.42;82.13
75627;BME280;67372;49.404;11.034;2023-10-13T07:30:05;98109.66;;;15.51;82.61
75627;BME280;67372;49.404;11.034;2023-10-13T07:32:32;98107.56;;;15.58;82.27
75627;BME280;67372;49.404;11.034;2023-10-13T07:34:58;98111.66;;;15.60;81.94
75627;BME280;67372;49.404;11.034;2023-10-13T07:37:25;98114.34;;;15.60;81.43
75627;BME280;67372;49.404;11.034;2023-10-13T07:39:52;98109.63;;;15.68;81.40
75627;BME280;67372;49.404;11.034;2023-10-13T07:42:18;98105.63;;;15.70;80.98
75627;BME280;67372;49.404;11.034;2023-10-13T07:44:45;98104.84;;;15.75;81.21
75627;BME280;67372;49.404;11.034;2023-10-13T07:47:11;98107.34;;;15.81;80.87
75627;BME280;67372;49.404;11.034;2023-10-13T07:49:38;98110.41;;;15.90;80.30
75627;BME280;67372;49.404;11.034;2023-10-13T07:52:09;98102.34;;;15.90;79.15
75627;BME280;67372;49.404;11.034;2023-10-13T07:54:36;98102.94;;;15.97;79.74
75627;BME280;67372;49.404;11.034;2023-10-13T07:57:02;98101.66;;;16.05;79.52
75627;BME280;67372;49.404;11.034;2023-10-13T07:59:28;98099.09;;;16.15;79.28
75627;BME280;67372;49.404;11.034;2023-10-13T08:01:55;98095.13;;;16.22;78.87
75627;BME280;67372;49.404;11.034;2023-10-13T08:04:21;98100.34;;;16.34;79.13
75627;BME280;67372;49.404;11.034;2023-10-13T08:06:48;98096.97;;;16.49;79.04
75627;BME280;67372;49.404;11.034;2023-10-13T08:09:15;98095.75;;;16.62;78.98
75627;BME280;67372;49.404;11.034;2023-10-13T08:11:41;98102.63;;;16.79;78.15
75627;BME280;67372;49.404;11.034;2023-10-13T08:14:07;98098.16;;;17.00;77.83
75627;BME280;67372;49.404;11.034;2023-10-13T08:16:51;98095.63;;;17.26;77.78
75627;BME280;67372;49.404;11.034;2023-10-13T08:19:20;98099.81;;;17.54;76.93
75627;BME280;67372;49.404;11.034;2023-10-13T08:21:47;98085.91;;;17.77;74.34
75627;BME280;67372;49.404;11.034;2023-10-13T08:24:15;98083.81;;;18.04;75.11
75627;BME280;67372;49.404;11.034;2023-10-13T08:26:41;98086.00;;;18.33;74.40
75627;BME280;67372;49.404;11.034;2023-10-13T08:29:08;98082.22;;;18.54;73.09
75627;BME280;67372;49.404;11.034;2023-10-13T08:31:34;98087.63;;;18.59;70.91
75627;BME280;67372;49.404;11.034;2023-10-13T08:34:01;98076.00;;;18.59;69.34
75627;BME280;67372;49.404;11.034;2023-10-13T08:36:27;98081.69;;;18.62;70.94
75627;BME280;67372;49.404;11.034;2023-10-13T08:38:55;98086.25;;;18.62;70.47
75627;BME280;67372;49.404;11.034;2023-10-13T08:41:24;98085.47;;;18.61;70.30
75627;BME280;67372;49.404;11.034;2023-10-13T08:43:50;98080.31;;;18.60;70.49
75627;BME280;67372;49.404;11.034;2023-10-13T08:46:20;98076.03;;;18.64;71.01
75627;BME280;67372;49.404;11.034;2023-10-13T08:48:46;98078.19;;;18.67;70.37
75627;BME280;67372;49.404;11.034;2023-10-13T08:51:13;98063.84;;;18.66;70.48
75627;BME280;67372;49.404;11.034;2023-10-13T08:53:40;98061.44;;;18.70;69.93
75627;BME280;67372;49.404;11.034;2023-10-13T08:56:10;98067.91;;;18.79;70.39
75627;BME280;67372;49.404;11.034;2023-10-13T08:58:37;98064.09;;;18.85;68.94
75627;BME280;67372;49.404;11.034;2023-10-13T09:01:03;98065.19;;;18.94;68.99
75627;BME280;67372;49.404;11.034;2023-10-13T09:03:30;98062.72;;;19.03;67.63
75627;BME280;67372;49.404;11.034;2023-10-13T09:05:56;98060.50;;;19.15;67.38
75627;BME280;67372;49.404;11.034;2023-10-13T09:08:26;98060.22;;;19.27;66.78
75627;BME280;67372;49.404;11.034;2023-10-13T09:10:58;98057.19;;;19.39;65.17
75627;BME280;67372;49.404;11.034;2023-10-13T09:13:34;98059.84;;;19.59;65.06
75627;BME280;67372;49.404;11.034;2023-10-13T09:16:09;98053.47;;;19.84;64.90
75627;BME280;67372;49.404;11.034;2023-10-13T09:18:35;98057.41;;;20.07;65.73
75627;BME280;67372;49.404;11.034;2023-10-13T09:21:01;98051.03;;;20.27;64.94
75627;BME280;67372;49.404;11.034;2023-10-13T09:23:28;98050.63;;;20.48;64.96
75627;BME280;67372;49.404;11.034;2023-10-13T09:26:05;98055.56;;;20.70;63.28
75627;BME280;67372;49.404;11.034;2023-10-13T09:28:32;98050.03;;;20.86;61.84
75627;BME280;67372;49.404;11.034;2023-10-13T09:30:58;98047.19;;;20.96;60.05
75627;BME280;67372;49.404;11.034;2023-10-13T09:33:26;98050.56;;;21.11;59.74
75627;BME280;67372;49.404;11.034;2023-10-13T09:35:54;98057.72;;;21.26;58.88
75627;BME280;67372;49.404;11.034;2023-10-13T09:38:20;98055.06;;;21.45;59.25
75627;BME280;67372;49.404;11.034;2023-10-13T09:40:47;98056.00;;;21.59;57.21
75627;BME280;67372;49.404;11.034;2023-10-13T09:43:13;98037.28;;;21.76;57.44
75627;BME280;67372;49.404;11.034;2023-10-13T09:45:40;98039.47;;;21.93;57.34
75627;BME280;67372;49.404;11.034;2023-10-13T09:48:10;98036.47;;;21.95;55.76
75627;BME280;67372;49.404;11.034;2023-10-13T09:50:37;98028.47;;;21.85;55.36
75627;BME280;67372;49.404;11.034;2023-10-13T09:53:05;98029.38;;;21.80;55.90
75627;BME280;67372;49.404;11.034;2023-10-13T09:55:35;98031.28;;;21.80;56.90
75627;BME280;67372;49.404;11.034;2023-10-13T09:58:10;98033.47;;;21.78;56.95
75627;BME280;67372;49.404;11.034;2023-10-13T10:00:47;98021.72;;;21.82;55.94
75627;BME280;67372;49.404;11.034;2023-10-13T10:03:15;98024.28;;;21.92;57.62
75627;BME280;67372;49.404;11.034;2023-10-13T10:05:42;98024.41;;;22.06;56.71
75627;BME280;67372;49.404;11.034;2023-10-13T10:08:09;98014.97;;;22.17;55.69
75627;BME280;67372;49.404;11.034;2023-10-13T10:10:56;98019.56;;;22.35;54.99
75627;BME280;67372;49.404;11.034;2023-10-13T10:13:35;98020.13;;;22.51;53.94
75627;BME280;67372;49.404;11.034;2023-10-13T10:16:11;98020.03;;;22.56;54.01
75627;BME280;67372;49.404;11.034;2023-10-13T10:18:38;98015.81;;;22.64;54.61
75627;BME280;67372;49.404;11.034;2023-10-13T10:21:05;98020.78;;;22.76;55.15
75627;BME280;67372;49.404;11.034;2023-10-13T10:23:31;98017.50;;;22.92;55.20
75627;BME280;67372;49.404;11.034;2023-10-13T10:25:57;98009.97;;;23.03;54.42
75627;BME280;67372;49.404;11.034;2023-10-13T10:28:35;98006.22;;;23.13;52.38
75627;BME280;67372;49.404;11.034;2023-10-13T10:31:05;98003.19;;;23.14;52.21
75627;BME280;67372;49.404;11.034;2023-10-13T10:33:32;98003.19;;;23.14;52.71
75627;BME280;67372;49.404;11.034;2023-10-13T10:36:00;98003.00;;;23.11;52.74
75627;BME280;67372;49.404;11.034;2023-10-13T10:38:26;97996.03;;;23.05;52.37
75627;BME280;67372;49.404;11.034;2023-10-13T10:41:06;97992.22;;;23.06;52.80
75627;BME280;67372;49.404;11.034;2023-10-13T10:43:37;97982.84;;;23.12;53.82
75627;BME280;67372;49.404;11.034;2023-10-13T10:46:03;97981.22;;;23.11;53.11
75627;BME280;67372;49.404;11.034;2023-10-13T10:48:31;97985.66;;;23.20;53.67
75627;BME280;67372;49.404;11.034;2023-10-13T10:50:58;97973.66;;;23.21;52.48
75627;BME280;67372;49.404;11.034;2023-10-13T10:53:25;97980.50;;;23.33;52.91
75627;BME280;67372;49.404;11.034;2023-10-13T10:55:51;97965.66;;;23.39;52.77
75627;BME280;67372;49.404;11.034;2023-10-13T10:58:18;97967.19;;;23.45;52.36
75627;BME280;67372;49.404;11.034;2023-10-13T11:00:44;97962.63;;;23.54;51.89
75627;BME280;67372;49.404;11.034;2023-10-13T11:03:12;97961.00;;;23.67;51.84
75627;BME280;67372;49.404;11.034;2023-10-13T11:05:48;97955.63;;;23.75;48.26
75627;BME280;67372;49.404;11.034;2023-10-13T11:08:24;97948.31;;;23.84;48.45
75627;BME280;67372;49.404;11.034;2023-10-13T11:10:51;97941.94;;;23.89;47.13
75627;BME280;67372;49.404;11.034;2023-10-13T11:13:17;97938.16;;;23.99;46.35
75627;BME280;67372;49.404;11.034;2023-10-13T11:15:44;97940.94;;;24.07;45.27
75627;BME280;67372;49.404;11.034;2023-10-13T11:18:11;97939.09;;;24.16;45.63
75627;BME280;67372;49.404;11.034;2023-10-13T11:20:41;97933.69;;;24.25;44.80
75627;BME280;67372;49.404;11.034;2023-10-13T11:23:14;97929.91;;;24.35;43.37
75627;BME280;67372;49.404;11.034;2023-10-13T11:25:41;97926.28;;;24.39;40.99
75627;BME280;67372;49.404;11.034;2023-10-13T11:28:14;97923.09;;;24.46;41.24
75627;BME280;67372;49.404;11.034;2023-10-13T11:30:41;97914.13;;;24.54;42.68
75627;BME280;67372;49.404;11.034;2023-10-13T11:33:11;97920.13;;;24.65;42.39
75627;BME280;67372;49.404;11.034;2023-10-13T11:35:40;97913.72;;;24.69;40.77
75627;BME280;67372;49.404;11.034;2023-10-13T11:38:06;97912.44;;;24.75;40.71
75627;BME280;67372;49.404;11.034;2023-10-13T11:40:33;97897.38;;;24.78;39.03
75627;BME280;67372;49.404;11.034;2023-10-13T11:42:59;97900.47;;;24.85;40.36
75627;BME280;67372;49.404;11.034;2023-10-13T11:45:25;97894.22;;;24.93;40.79
75627;BME280;67372;49.404;11.034;2023-10-13T11:47:52;97894.56;;;25.00;39.32
75627;BME280;67372;49.404;11.034;2023-10-13T11:50:18;97888.81;;;25.11;39.86
75627;BME280;67372;49.404;11.034;2023-10-13T11:52:45;97884.16;;;25.20;39.05
75627;BME280;67372;49.404;11.034;2023-10-13T11:55:11;97883.22;;;25.24;39.97
75627;BME280;67372;49.404;11.034;2023-10-13T11:57:38;97880.78;;;25.31;39.10
75627;BME280;67372;49.404;11.034;2023-10-13T12:00:04;97880.50;;;25.33;39.37
75627;BME280;67372;49.404;11.034;2023-10-13T12:02:31;97885.66;;;25.34;39.30
75627;BME280;67372;49.404;11.034;2023-10-13T12:04:57;97876.13;;;25.23;37.89
75627;BME280;67372;49.404;11.034;2023-10-13T12:07:24;97875.19;;;25.28;38.72
75627;BME280;67372;49.404;11.034;2023-10-13T12:09:51;97874.38;;;25.27;37.60
75627;BME280;67372;49.404;11.034;2023-10-13T12:12:18;97872.31;;;25.33;38.40
75627;BME280;67372;49.404;11.034;2023-10-13T12:14:44;97868.94;;;25.36;38.00
75627;BME280;67372;49.404;11.034;2023-10-13T12:17:11;97862.97;;;25.43;38.81
75627;BME280;67372;49.404;11.034;2023-10-13T12:19:38;97858.63;;;25.50;38.80
75627;BME280;67372;49.404;11.034;2023-10-13T12:22:04;97859.59;;;25.54;38.05
75627;BME280;67372;49.404;11.034;2023-10-13T12:24:31;97853.81;;;25.64;38.65
75627;BME280;67372;49.404;11.034;2023-10-13T12:26:57;97849.47;;;25.72;38.36
75627;BME280;67372;49.404;11.034;2023-10-13T12:29:23;97852.22;;;25.72;37.71
75627;BME280;67372;49.404;11.034;2023-10-13T12:31:50;97838.22;;;25.74;36.50
75627;BME280;67372;49.404;11.034;2023-10-13T12:34:16;97838.69;;;25.76;37.84
75627;BME280;67372;49.404;11.034;2023-10-13T12:36:43;97840.81;;;25.70;38.46
75627;BME280;67372;49.404;11.034;2023-10-13T12:39:09;97833.91;;;25.55;38.04
75627;BME280;67372;49.404;11.034;2023-10-13T12:41:35;97831.81;;;25.44;38.49
75627;BME280;67372;49.404;11.034;2023-10-13T12:44:03;97838.22;;;25.22;37.38
75627;BME280;67372;49.404;11.034;2023-10-13T12:46:29;97828.13;;;25.14;38.70
75627;BME280;67372;49.404;11.034;2023-10-13T12:48:56;97833.56;;;25.05;39.33
75627;BME280;67372;49.404;11.034;2023-10-13T12:51:22;97837.38;;;24.95;39.50